createdAt,value
2023-05-04T03:57:46.229Z,79.00
2023-05-04T04:00:48.823Z,79.00
2023-05-04T04:03:51.475Z,83.86
2023-05-04T04:06:54.082Z,81.31
2023-05-04T04:09:56.618Z,83.26
2023-05-04T04:12:58.816Z,81.13
2023-05-04T04:16:01.357Z,85.18
2023-05-04T04:19:03.519Z,83.29
2023-05-04T04:22:05.965Z,81.30
2023-05-04T04:25:08.897Z,82.64
2023-05-04T04:28:11.487Z,82.83
2023-05-04T04:31:13.656Z,81.94
2023-05-04T04:34:16.250Z,85.70
2023-05-04T04:37:18.432Z,82.39
2023-05-04T04:40:22.465Z,81.14
2023-05-04T04:43:24.669Z,80.99
2023-05-04T04:46:27.957Z,79.07
2023-05-04T04:49:30.118Z,78.12
2023-05-04T04:52:33.470Z,79.85
2023-05-04T04:55:35.593Z,79.31
2023-05-04T04:58:38.034Z,77.84
2023-05-04T05:01:42.668Z,76.04
2023-05-04T05:04:45.111Z,73.89
2023-05-04T05:07:47.628Z,77.76
2023-05-04T05:10:50.052Z,78.50
2023-05-04T05:13:52.187Z,74.62
2023-05-04T05:16:54.698Z,70.87
2023-05-04T05:19:56.971Z,70.32
2023-05-04T05:22:59.607Z,69.53
2023-05-04T05:26:03.350Z,66.38
2023-05-04T05:29:05.940Z,73.51
2023-05-04T05:32:08.046Z,74.88
2023-05-04T05:35:10.559Z,69.46
2023-05-04T05:38:12.757Z,64.86
2023-05-04T05:41:15.360Z,67.34
2023-05-04T05:44:17.501Z,67.15
2023-05-04T05:47:20.041Z,67.61
2023-05-04T05:50:23.443Z,65.10
2023-05-04T05:53:26.231Z,64.02
2023-05-04T05:56:28.356Z,66.57
2023-05-04T05:59:30.725Z,66.52
2023-05-04T06:02:32.888Z,72.38
2023-05-04T06:05:35.335Z,64.60
2023-05-04T06:08:37.629Z,68.76
2023-05-04T06:11:40.063Z,64.04
2023-05-04T06:14:42.227Z,62.24
2023-05-04T06:17:44.743Z,66.61
2023-05-04T06:20:46.883Z,62.36
2023-05-04T06:23:49.228Z,63.39
2023-05-04T06:26:51.469Z,62.45
2023-05-04T06:29:53.883Z,62.51
2023-05-04T06:32:56.016Z,61.90
2023-05-04T06:35:58.457Z,58.45
2023-05-04T06:39:00.535Z,63.46
2023-05-04T06:42:03.438Z,74.39
2023-05-04T06:45:10.423Z,62.24
2023-05-04T06:48:13.805Z,58.92
2023-05-04T06:51:16.250Z,59.78
2023-05-04T06:54:18.674Z,57.50
2023-05-04T06:57:20.807Z,66.60
2023-05-04T07:00:23.770Z,63.63
2023-05-04T07:03:26.888Z,63.62
2023-05-04T07:06:29.762Z,57.53
2023-05-04T07:09:32.112Z,58.08
2023-05-04T07:12:34.633Z,58.92
2023-05-04T07:15:37.054Z,58.78
2023-05-04T07:18:40.328Z,59.04
2023-05-04T07:21:42.712Z,60.13
2023-05-04T07:24:45.088Z,59.67
2023-05-04T07:27:49.404Z,59.57
2023-05-04T07:30:54.505Z,58.10
2023-05-04T07:33:57.147Z,60.98
2023-05-04T07:36:59.525Z,59.58
2023-05-04T07:40:02.936Z,58.98
2023-05-04T07:43:05.731Z,59.69
2023-05-04T07:46:09.397Z,58.95
2023-05-04T07:49:13.512Z,72.29
2023-05-04T07:52:16.443Z,61.34
2023-05-04T07:55:19.063Z,61.03
2023-05-04T07:58:21.308Z,57.05
2023-05-04T08:01:24.637Z,58.74
2023-05-04T08:04:27.483Z,62.27
2023-05-04T08:07:29.575Z,58.08
2023-05-04T08:10:36.633Z,58.73
2023-05-04T08:13:39.838Z,61.77
2023-05-04T08:16:42.316Z,58.91
2023-05-04T08:19:44.543Z,57.39
2023-05-04T08:22:48.914Z,57.95
2023-05-04T08:25:52.365Z,56.96
2023-05-04T08:29:06.011Z,58.97
2023-05-04T08:32:09.337Z,59.32
2023-05-04T08:35:11.869Z,56.84
2023-05-04T08:38:14.043Z,57.30
2023-05-04T08:41:16.661Z,65.60
2023-05-04T08:44:19.581Z,67.08
2023-05-04T08:47:22.232Z,57.49
2023-05-04T08:50:24.824Z,56.33
2023-05-04T08:53:28.067Z,54.77
2023-05-04T08:56:30.622Z,57.79
2023-05-04T08:59:33.443Z,60.03
2023-05-04T09:02:37.335Z,56.71
2023-05-04T09:05:42.601Z,54.42
2023-05-04T09:08:44.788Z,55.87
2023-05-04T09:11:47.890Z,51.11
2023-05-04T09:14:50.436Z,53.34
2023-05-04T09:18:05.430Z,57.08
2023-05-04T09:21:07.889Z,59.02
2023-05-04T09:24:12.472Z,55.08
2023-05-04T09:27:16.251Z,53.84
2023-05-04T09:30:21.136Z,50.95
2023-05-04T09:33:27.386Z,56.85
2023-05-04T09:36:29.817Z,53.01
2023-05-04T09:39:31.946Z,50.53
2023-05-04T09:42:34.363Z,55.09
2023-05-04T09:45:44.606Z,51.43
2023-05-04T09:48:52.295Z,49.66
2023-05-04T09:51:55.048Z,52.25
2023-05-04T09:54:58.802Z,51.69
2023-05-04T09:58:01.211Z,54.80
2023-05-04T10:01:04.863Z,60.67
2023-05-04T10:04:07.352Z,52.70
2023-05-04T10:07:09.606Z,52.35
2023-05-04T10:10:14.518Z,52.87
2023-05-04T10:13:17.445Z,52.29
2023-05-04T10:16:41.766Z,50.63
2023-05-04T10:19:59.184Z,51.37
2023-05-04T10:23:23.677Z,51.47
2023-05-04T10:26:40.666Z,51.36
2023-05-04T10:29:49.343Z,54.26
2023-05-04T10:32:59.336Z,51.69
2023-05-04T10:36:01.969Z,50.59
2023-05-04T10:39:05.892Z,53.79
2023-05-04T10:42:08.513Z,55.88
2023-05-04T10:45:10.957Z,52.58
2023-05-04T10:48:13.793Z,51.41
2023-05-04T10:51:26.592Z,53.49
2023-05-04T10:54:32.790Z,51.89
2023-05-04T10:57:35.398Z,59.35
2023-05-04T11:00:40.157Z,54.03
2023-05-04T11:03:42.692Z,56.48
2023-05-04T11:06:56.235Z,54.13
2023-05-04T11:09:59.642Z,53.15
2023-05-04T11:13:05.531Z,58.02
2023-05-04T11:16:08.231Z,51.99
2023-05-04T11:19:12.555Z,54.54
2023-05-04T11:22:15.499Z,50.68
2023-05-04T11:25:27.079Z,51.25
2023-05-04T11:28:36.622Z,51.01
2023-05-04T11:31:39.780Z,54.40
2023-05-04T11:34:46.183Z,53.81
2023-05-04T11:37:50.360Z,57.27
2023-05-04T11:40:52.476Z,56.21
2023-05-04T11:43:55.201Z,55.81
2023-05-04T11:46:57.391Z,51.67
2023-05-04T11:50:00.118Z,53.26
2023-05-04T11:53:12.172Z,53.97
2023-05-04T11:56:14.628Z,53.84
2023-05-04T11:59:16.924Z,55.92
2023-05-04T12:02:20.377Z,56.16
2023-05-04T12:05:22.952Z,56.20
2023-05-04T12:08:35.911Z,59.36
2023-05-04T12:11:40.605Z,58.18
2023-05-04T12:14:54.080Z,57.23
2023-05-04T12:17:59.642Z,56.19
2023-05-04T12:21:21.436Z,54.54
2023-05-04T12:24:25.011Z,54.04
2023-05-04T12:27:27.696Z,53.18
2023-05-04T12:30:30.575Z,54.15
2023-05-04T12:33:33.564Z,54.63
2023-05-04T12:36:36.047Z,54.53
2023-05-04T12:39:38.453Z,54.04
2023-05-04T12:42:42.264Z,53.53
2023-05-04T12:45:44.508Z,51.50
2023-05-04T12:48:47.008Z,54.98
2023-05-04T12:51:50.320Z,54.90
2023-05-04T12:54:52.692Z,57.05
2023-05-04T12:57:54.787Z,58.96
2023-05-04T13:00:58.040Z,58.64
2023-05-04T13:04:00.309Z,60.58
2023-05-04T13:07:02.844Z,60.68
2023-05-04T13:10:06.484Z,63.17
2023-05-04T13:13:09.134Z,59.42
2023-05-04T13:16:12.741Z,58.96
2023-05-04T13:19:15.292Z,61.83
2023-05-04T13:22:17.438Z,65.83
2023-05-04T13:25:19.828Z,67.46
2023-05-04T13:28:22.028Z,68.86
2023-05-04T13:31:24.558Z,68.51
2023-05-04T13:34:26.784Z,68.57
2023-05-04T13:37:29.150Z,67.30
2023-05-04T13:40:31.523Z,65.93
2023-05-04T13:43:33.898Z,66.60
2023-05-04T13:46:36.837Z,66.16
2023-05-04T13:49:39.772Z,65.79
2023-05-04T13:52:41.965Z,68.04
2023-05-04T13:55:44.368Z,66.52
2023-05-04T13:58:46.509Z,65.32
2023-05-04T14:01:49.044Z,64.17
2023-05-04T14:04:52.851Z,66.81
2023-05-04T14:07:55.058Z,64.92
2023-05-04T14:10:57.523Z,65.75
2023-05-04T14:13:59.671Z,65.50
2023-05-04T14:17:02.188Z,64.05
2023-05-04T14:20:05.807Z,66.22
2023-05-04T14:23:08.275Z,65.95
2023-05-04T14:26:11.466Z,65.20
2023-05-04T14:29:13.990Z,65.22
2023-05-04T14:32:16.297Z,63.28
2023-05-04T14:35:18.699Z,65.54
2023-05-04T14:38:21.038Z,62.58
2023-05-04T14:41:23.506Z,58.01
2023-05-04T14:44:27.826Z,58.00
2023-05-04T14:47:30.336Z,57.87
2023-05-04T14:50:32.786Z,56.53
2023-05-04T14:53:36.979Z,55.30
2023-05-04T14:56:40.788Z,56.47
2023-05-04T14:59:43.651Z,56.38
2023-05-04T15:02:45.818Z,56.30
2023-05-04T15:05:48.301Z,56.52
2023-05-04T15:08:50.661Z,57.45
